createdAt,value
2018-12-26T00:03:43.082Z,10.60
2018-12-26T00:09:06.117Z,11.40
2018-12-26T00:14:28.450Z,11.37
2018-12-26T00:19:50.689Z,10.60
2018-12-26T00:25:13.094Z,10.30
2018-12-26T00:30:35.569Z,10.23
2018-12-26T00:35:38.402Z,9.87
2018-12-26T00:41:00.752Z,10.40
2018-12-26T00:46:15.739Z,9.60
2018-12-26T00:51:38.036Z,10.17
2018-12-26T00:57:00.356Z,9.00
2018-12-26T01:02:22.643Z,9.90
2018-12-26T01:07:44.940Z,10.63
2018-12-26T01:13:07.234Z,9.73
2018-12-26T01:18:29.563Z,8.60
2018-12-26T01:23:51.851Z,8.83
2018-12-26T01:29:14.171Z,9.83
2018-12-26T01:34:36.458Z,9.00
2018-12-26T01:39:58.797Z,10.80
2018-12-26T01:45:01.691Z,9.77
2018-12-26T01:50:04.730Z,8.63
2018-12-26T01:55:27.039Z,8.80
2018-12-26T02:00:49.337Z,9.27
2018-12-26T02:06:11.626Z,8.50
2018-12-26T02:11:33.940Z,10.20
2018-12-26T02:16:36.782Z,9.13
2018-12-26T02:21:59.072Z,10.27
2018-12-26T02:27:21.359Z,11.30
2018-12-26T02:32:43.704Z,10.80
2018-12-26T02:37:46.468Z,10.57
2018-12-26T02:42:49.166Z,9.93
2018-12-26T02:48:04.805Z,10.07
2018-12-26T02:53:07.495Z,10.30
2018-12-26T02:58:30.640Z,10.80
2018-12-26T03:03:45.744Z,10.60
2018-12-26T03:09:08.052Z,12.07
2018-12-26T03:14:10.864Z,10.40
2018-12-26T03:19:33.171Z,11.00
2018-12-26T03:24:35.865Z,10.83
2018-12-26T03:29:58.200Z,10.37
2018-12-26T03:35:20.472Z,10.60
2018-12-26T03:40:42.764Z,10.10
2018-12-26T03:45:58.488Z,11.50
2018-12-26T03:51:01.425Z,11.50
2018-12-26T03:56:04.333Z,10.87
2018-12-26T04:01:07.020Z,10.07
2018-12-26T04:06:29.314Z,9.70
2018-12-26T04:11:51.597Z,10.60
2018-12-26T04:17:14.114Z,9.90
2018-12-26T04:22:17.148Z,10.37
2018-12-26T04:27:39.454Z,10.33
2018-12-26T04:33:01.748Z,11.27
2018-12-26T04:38:24.047Z,11.73
2018-12-26T04:43:46.381Z,10.43
2018-12-26T04:49:08.707Z,12.00
2018-12-26T04:54:30.981Z,12.13
2018-12-26T04:59:53.290Z,11.70
2018-12-26T05:05:15.600Z,12.33
2018-12-26T05:10:38.012Z,11.43
2018-12-26T05:16:00.281Z,13.60
2018-12-26T05:21:22.574Z,13.70
2018-12-26T05:26:44.892Z,13.50
2018-12-26T05:32:07.227Z,13.57
2018-12-26T05:37:29.515Z,13.77
2018-12-26T05:42:32.348Z,14.27
2018-12-26T05:47:48.199Z,14.97
2018-12-26T05:53:10.497Z,15.40
2018-12-26T05:58:32.797Z,16.17
2018-12-26T06:03:55.010Z,16.50
2018-12-26T06:09:17.310Z,16.77
2018-12-26T06:14:20.101Z,16.10
2018-12-26T06:19:42.402Z,15.10
2018-12-26T06:25:04.699Z,16.53
2018-12-26T06:30:07.523Z,15.57
2018-12-26T06:35:29.854Z,17.57
2018-12-26T06:40:52.187Z,16.67
2018-12-26T06:46:09.791Z,16.60
2018-12-26T06:51:32.009Z,17.03
2018-12-26T06:56:54.261Z,16.70
2018-12-26T07:02:16.581Z,16.30
2018-12-26T07:07:38.974Z,16.63
2018-12-26T07:13:01.305Z,17.70
2018-12-26T07:18:24.454Z,18.20
2018-12-26T07:23:46.782Z,18.73
2018-12-26T07:29:09.093Z,19.00
2018-12-26T07:34:31.468Z,16.57
2018-12-26T07:39:53.837Z,18.23
2018-12-26T07:45:09.241Z,16.77
2018-12-26T07:50:31.524Z,18.30
2018-12-26T07:55:53.826Z,16.90
2018-12-26T08:01:16.152Z,17.70
2018-12-26T08:06:38.422Z,16.60
2018-12-26T08:12:00.766Z,17.37
2018-12-26T08:17:23.087Z,17.33
2018-12-26T08:22:45.429Z,16.67
2018-12-26T08:28:07.731Z,16.97
2018-12-26T08:33:30.106Z,17.70
2018-12-26T08:38:52.439Z,17.47
2018-12-26T08:44:07.407Z,16.10
2018-12-26T08:49:10.212Z,19.17
2018-12-26T08:54:32.555Z,18.73
2018-12-26T08:59:54.889Z,18.63
2018-12-26T09:05:17.160Z,18.63
2018-12-26T09:10:39.503Z,17.50
2018-12-26T09:16:01.802Z,17.23
2018-12-26T09:21:23.979Z,18.07
2018-12-26T09:26:46.527Z,18.87
2018-12-26T09:32:08.877Z,20.17
2018-12-26T09:37:32.171Z,18.33
2018-12-26T09:42:54.622Z,19.33
2018-12-26T09:48:10.466Z,19.83
2018-12-26T09:53:32.883Z,18.80
2018-12-26T09:59:15.739Z,19.87
2018-12-26T10:04:20.734Z,20.40
2018-12-26T10:09:44.388Z,19.47
2018-12-26T10:15:08.344Z,21.10
2018-12-26T10:20:31.522Z,20.30
2018-12-26T10:25:55.163Z,19.57
2018-12-26T10:31:18.031Z,19.33
2018-12-26T10:36:43.933Z,19.30
2018-12-26T10:42:10.260Z,20.77
2018-12-26T10:47:32.436Z,19.43
2018-12-26T10:52:38.176Z,20.07
2018-12-26T10:58:04.167Z,20.07
2018-12-26T11:03:13.665Z,19.23
2018-12-26T11:08:18.452Z,18.97
2018-12-26T11:13:41.263Z,20.87
2018-12-26T11:19:04.631Z,23.40
2018-12-26T11:24:49.205Z,21.07
2018-12-26T11:35:44.315Z,23.03
2018-12-26T11:41:08.413Z,21.90
2018-12-26T11:46:24.529Z,20.80
2018-12-26T11:51:48.208Z,19.53
2018-12-26T11:56:52.384Z,21.00
2018-12-26T12:02:20.757Z,21.10
2018-12-26T12:07:43.152Z,21.23
2018-12-26T12:13:06.811Z,21.23
2018-12-26T12:24:45.768Z,20.67
2018-12-26T12:30:28.436Z,21.07
2018-12-26T12:35:51.871Z,19.97
2018-12-26T12:41:15.389Z,22.50
2018-12-26T12:46:32.586Z,21.00
2018-12-26T12:51:37.012Z,20.87
2018-12-26T12:56:53.297Z,20.57
2018-12-26T13:01:58.918Z,21.97
2018-12-26T13:07:22.507Z,19.40
2018-12-26T13:12:46.333Z,18.23
2018-12-26T13:18:09.690Z,21.00
2018-12-26T13:23:14.149Z,20.63
2018-12-26T13:28:37.860Z,20.33
2018-12-26T13:34:01.109Z,19.70
2018-12-26T13:44:37.326Z,19.80
2018-12-26T13:50:21.545Z,19.57
2018-12-26T13:55:47.044Z,19.10
2018-12-26T14:01:11.948Z,19.87
2018-12-26T14:06:36.965Z,19.20
2018-12-26T14:11:59.409Z,17.73
2018-12-26T14:17:22.581Z,18.80
2018-12-26T14:22:44.989Z,18.33
2018-12-26T14:28:07.276Z,17.80
2018-12-26T14:33:11.392Z,18.90
2018-12-26T14:38:35.178Z,18.90
2018-12-26T14:44:01.247Z,19.00
2018-12-26T14:49:09.256Z,18.83
2018-12-26T14:54:33.519Z,19.33
2018-12-26T14:59:38.417Z,18.90
2018-12-26T15:04:43.611Z,18.87
2018-12-26T15:10:07.710Z,20.50
2018-12-26T15:15:31.000Z,18.53
2018-12-26T15:20:54.706Z,19.87
2018-12-26T15:25:59.374Z,18.10
2018-12-26T15:31:03.856Z,18.90
2018-12-26T15:36:07.378Z,17.77
2018-12-26T15:41:12.139Z,19.83
2018-12-26T15:46:28.427Z,19.50
2018-12-26T15:51:52.214Z,17.80
2018-12-26T15:57:16.284Z,18.40
2018-12-26T16:02:39.173Z,19.17
2018-12-26T16:07:44.092Z,19.63
2018-12-26T16:13:07.221Z,18.23
2018-12-26T16:18:31.433Z,19.80
2018-12-26T16:23:53.815Z,19.57
2018-12-26T16:28:56.666Z,20.20
2018-12-26T16:33:59.655Z,17.90
2018-12-26T16:39:03.619Z,18.87
2018-12-26T16:44:19.295Z,17.80
2018-12-26T16:49:41.687Z,17.97
2018-12-26T16:55:04.577Z,17.37
2018-12-26T17:00:26.920Z,17.93
2018-12-26T17:05:29.893Z,17.20
2018-12-26T17:10:33.089Z,17.63
2018-12-26T17:15:55.548Z,18.63
2018-12-26T17:21:18.267Z,18.23
2018-12-26T17:26:41.708Z,18.17
2018-12-26T17:31:44.800Z,16.93
2018-12-26T17:37:07.553Z,18.37
2018-12-26T17:42:29.861Z,16.23
2018-12-26T17:47:44.974Z,17.17
2018-12-26T17:53:09.792Z,16.63
2018-12-26T17:58:12.804Z,16.80
2018-12-26T18:03:35.235Z,18.63
2018-12-26T18:08:57.552Z,17.33
2018-12-26T18:14:19.901Z,16.13
2018-12-26T18:19:42.460Z,16.60
2018-12-26T18:25:06.745Z,19.60
2018-12-26T18:30:29.086Z,17.90
2018-12-26T18:35:51.480Z,18.37
2018-12-26T18:40:54.371Z,16.23
2018-12-26T18:46:10.289Z,16.60
2018-12-26T18:51:32.718Z,17.77
2018-12-26T18:56:55.106Z,16.83
2018-12-26T19:02:17.508Z,16.70
2018-12-26T19:07:39.798Z,18.00
2018-12-26T19:13:02.211Z,16.40
2018-12-26T19:18:24.629Z,17.77
2018-12-26T19:23:47.065Z,16.60
2018-12-26T19:29:09.465Z,18.93
2018-12-26T19:34:31.784Z,19.80
2018-12-26T19:39:54.103Z,19.53
2018-12-26T19:45:09.223Z,20.30
2018-12-26T19:50:31.693Z,18.03
2018-12-26T19:55:54.035Z,18.17
2018-12-26T20:01:16.367Z,20.40
2018-12-26T20:06:38.787Z,20.53
2018-12-26T20:12:04.838Z,21.90
2018-12-26T20:17:07.759Z,19.50
2018-12-26T20:22:30.078Z,21.83
2018-12-26T20:27:32.906Z,22.87
2018-12-26T20:32:55.303Z,21.93
2018-12-26T20:37:58.156Z,19.93
2018-12-26T20:43:20.461Z,20.53
2018-12-26T20:48:35.839Z,20.07
2018-12-26T20:53:58.170Z,20.67
2018-12-26T20:59:20.491Z,20.07
2018-12-26T21:04:42.817Z,19.83
2018-12-26T21:09:45.646Z,19.67
2018-12-26T21:15:07.997Z,19.33
2018-12-26T21:20:30.311Z,21.20
2018-12-26T21:25:52.607Z,20.77
2018-12-26T21:31:14.893Z,20.80
2018-12-26T21:36:17.814Z,21.40
2018-12-26T21:41:20.641Z,20.57
2018-12-26T21:46:35.910Z,21.70
2018-12-26T21:51:38.709Z,22.13
2018-12-26T21:56:41.581Z,21.80
2018-12-26T22:01:44.501Z,20.70
2018-12-26T22:07:06.818Z,21.80
2018-12-26T22:12:29.205Z,20.30
2018-12-26T22:17:51.491Z,20.13
2018-12-26T22:23:13.806Z,20.63
2018-12-26T22:28:16.617Z,21.80
2018-12-26T22:33:38.933Z,24.10
2018-12-26T22:39:01.223Z,23.87
2018-12-26T22:44:16.420Z,24.40
2018-12-26T22:49:38.717Z,22.53
2018-12-26T22:55:01.015Z,23.80
2018-12-26T23:00:43.059Z,22.67
2018-12-26T23:05:45.865Z,21.80
2018-12-26T23:11:08.176Z,21.77
2018-12-26T23:16:30.478Z,21.70
2018-12-26T23:21:52.769Z,21.53
2018-12-26T23:27:15.045Z,21.07
2018-12-26T23:32:37.357Z,21.70
2018-12-26T23:37:40.143Z,20.70
2018-12-26T23:43:02.737Z,20.00
2018-12-26T23:48:18.285Z,20.50
2018-12-26T23:53:43.765Z,18.37
2018-12-26T23:59:06.198Z,19.93
